Who's Online

We have 6 guests online

GK Weather

An error occured during parsing XML data. Please try again.

Aviation WX

[source: ADDS]
METAR
KIAD 271652Z 18005KT 10SM FEW250 28/17 A3004 RMK AO2 SLP171 T02780167 =
TAF
KIAD 271136Z 2712/2818 00000KT P6SM SKC FM271600 30004KT P6SM FEW050 FM280000 VRB05KT P6SM VCSH BKN050 FM280400 29004KT P6SM SCT050 FM280700 34008KT P6SM SCT090 =
SR / SS: 00:17 / 13:28 UTC (Washington-Dulles 2014-08-27)

JoomlaWatch Agent

Home Links
We are regularly out on the Web. When we find a great site we list it.